sensor_id;sensor_type;location;lat;lon;timestamp;P1;durP1;ratioP1;P2;durP2;ratioP2
39066;SDS011;24821;51.988;6.020;2022-11-23T00:00:31;1.95;;;1.85;;
39066;SDS011;24821;51.988;6.020;2022-11-23T00:02:57;3.40;;;2.00;;
39066;SDS011;24821;51.988;6.020;2022-11-23T00:05:23;4.60;;;2.67;;
39066;SDS011;24821;51.988;6.020;2022-11-23T00:07:50;4.72;;;2.53;;
39066;SDS011;24821;51.988;6.020;2022-11-23T00:10:15;2.42;;;2.25;;
39066;SDS011;24821;51.988;6.020;2022-11-23T00:12:42;2.80;;;2.65;;
39066;SDS011;24821;51.988;6.020;2022-11-23T00:15:08;2.30;;;2.10;;
39066;SDS011;24821;51.988;6.020;2022-11-23T00:17:36;2.40;;;2.20;;
39066;SDS011;24821;51.988;6.020;2022-11-23T00:20:02;2.50;;;2.30;;
39066;SDS011;24821;51.988;6.020;2022-11-23T00:22:28;7.00;;;2.88;;
39066;SDS011;24821;51.988;6.020;2022-11-23T00:24:53;3.75;;;2.35;;
39066;SDS011;24821;51.988;6.020;2022-11-23T00:27:19;2.72;;;2.53;;
39066;SDS011;24821;51.988;6.020;2022-11-23T00:29:44;2.83;;;2.22;;
39066;SDS011;24821;51.988;6.020;2022-11-23T00:32:10;2.53;;;2.40;;
39066;SDS011;24821;51.988;6.020;2022-11-23T00:34:35;2.40;;;2.30;;
39066;SDS011;24821;51.988;6.020;2022-11-23T00:37:01;5.15;;;2.47;;
39066;SDS011;24821;51.988;6.020;2022-11-23T00:39:26;2.35;;;2.20;;
39066;SDS011;24821;51.988;6.020;2022-11-23T00:41:52;3.22;;;2.92;;
39066;SDS011;24821;51.988;6.020;2022-11-23T00:44:17;4.05;;;2.30;;
39066;SDS011;24821;51.988;6.020;2022-11-23T00:46:43;2.65;;;2.45;;
39066;SDS011;24821;51.988;6.020;2022-11-23T00:49:08;2.75;;;2.55;;
39066;SDS011;24821;51.988;6.020;2022-11-23T00:51:35;2.90;;;2.63;;
39066;SDS011;24821;51.988;6.020;2022-11-23T00:54:01;2.33;;;2.20;;
39066;SDS011;24821;51.988;6.020;2022-11-23T00:56:29;3.53;;;2.63;;
39066;SDS011;24821;51.988;6.020;2022-11-23T00:58:57;3.47;;;3.17;;
39066;SDS011;24821;51.988;6.020;2022-11-23T01:01:24;3.13;;;2.03;;
39066;SDS011;24821;51.988;6.020;2022-11-23T01:03:53;5.10;;;2.97;;
39066;SDS011;24821;51.988;6.020;2022-11-23T01:06:24;3.63;;;3.42;;
39066;SDS011;24821;51.988;6.020;2022-11-23T01:08:59;2.65;;;2.45;;
39066;SDS011;24821;51.988;6.020;2022-11-23T01:11:27;3.85;;;3.55;;
39066;SDS011;24821;51.988;6.020;2022-11-23T01:13:54;13.07;;;3.33;;
39066;SDS011;24821;51.988;6.020;2022-11-23T01:16:22;3.38;;;2.95;;
39066;SDS011;24821;51.988;6.020;2022-11-23T01:18:54;7.85;;;3.03;;
39066;SDS011;24821;51.988;6.020;2022-11-23T01:21:22;5.35;;;3.38;;
39066;SDS011;24821;51.988;6.020;2022-11-23T01:23:49;8.90;;;2.75;;
39066;SDS011;24821;51.988;6.020;2022-11-23T01:26:15;8.00;;;2.80;;
39066;SDS011;24821;51.988;6.020;2022-11-23T01:28:40;3.78;;;2.92;;
39066;SDS011;24821;51.988;6.020;2022-11-23T01:31:08;2.05;;;1.95;;
39066;SDS011;24821;51.988;6.020;2022-11-23T01:33:35;2.08;;;1.90;;
39066;SDS011;24821;51.988;6.020;2022-11-23T01:36:17;5.82;;;2.58;;
39066;SDS011;24821;51.988;6.020;2022-11-23T01:38:44;5.05;;;2.17;;
39066;SDS011;24821;51.988;6.020;2022-11-23T01:41:12;1.65;;;1.65;;
39066;SDS011;24821;51.988;6.020;2022-11-23T01:43:40;2.00;;;1.90;;
39066;SDS011;24821;51.988;6.020;2022-11-23T01:46:06;2.90;;;2.70;;
39066;SDS011;24821;51.988;6.020;2022-11-23T01:51:19;6.75;;;2.78;;
39066;SDS011;24821;51.988;6.020;2022-11-23T01:53:48;3.08;;;2.45;;
39066;SDS011;24821;51.988;6.020;2022-11-23T01:56:17;10.18;;;2.30;;
39066;SDS011;24821;51.988;6.020;2022-11-23T01:58:48;2.80;;;2.13;;
39066;SDS011;24821;51.988;6.020;2022-11-23T02:01:16;5.47;;;3.22;;
39066;SDS011;24821;51.988;6.020;2022-11-23T02:03:42;3.22;;;3.00;;
39066;SDS011;24821;51.988;6.020;2022-11-23T02:06:12;2.70;;;2.22;;
39066;SDS011;24821;51.988;6.020;2022-11-23T02:08:40;3.90;;;2.35;;
39066;SDS011;24821;51.988;6.020;2022-11-23T02:11:06;14.50;;;2.30;;
39066;SDS011;24821;51.988;6.020;2022-11-23T02:13:33;1.98;;;1.80;;
39066;SDS011;24821;51.988;6.020;2022-11-23T02:15:59;4.13;;;3.33;;
39066;SDS011;24821;51.988;6.020;2022-11-23T02:18:25;2.50;;;2.33;;
39066;SDS011;24821;51.988;6.020;2022-11-23T02:20:54;2.38;;;2.05;;
39066;SDS011;24821;51.988;6.020;2022-11-23T02:26:26;3.72;;;1.88;;
39066;SDS011;24821;51.988;6.020;2022-11-23T02:31:42;2.03;;;1.92;;
39066;SDS011;24821;51.988;6.020;2022-11-23T02:34:07;3.70;;;2.33;;
39066;SDS011;24821;51.988;6.020;2022-11-23T02:36:38;1.58;;;1.48;;
39066;SDS011;24821;51.988;6.020;2022-11-23T02:41:56;1.95;;;1.85;;
39066;SDS011;24821;51.988;6.020;2022-11-23T02:46:55;4.75;;;2.28;;
39066;SDS011;24821;51.988;6.020;2022-11-23T02:49:22;2.78;;;2.03;;
39066;SDS011;24821;51.988;6.020;2022-11-23T02:51:48;4.82;;;1.77;;
39066;SDS011;24821;51.988;6.020;2022-11-23T02:54:13;2.05;;;1.95;;
39066;SDS011;24821;51.988;6.020;2022-11-23T02:56:39;4.60;;;2.65;;
39066;SDS011;24821;51.988;6.020;2022-11-23T02:59:05;6.13;;;2.50;;
39066;SDS011;24821;51.988;6.020;2022-11-23T03:01:31;2.20;;;2.08;;
39066;SDS011;24821;51.988;6.020;2022-11-23T03:03:56;3.40;;;3.13;;
39066;SDS011;24821;51.988;6.020;2022-11-23T03:06:22;2.25;;;2.13;;
39066;SDS011;24821;51.988;6.020;2022-11-23T03:08:47;2.53;;;2.35;;
39066;SDS011;24821;51.988;6.020;2022-11-23T03:11:13;3.22;;;1.92;;
39066;SDS011;24821;51.988;6.020;2022-11-23T03:13:39;2.38;;;2.28;;
39066;SDS011;24821;51.988;6.020;2022-11-23T03:16:04;2.30;;;2.20;;
39066;SDS011;24821;51.988;6.020;2022-11-23T03:18:30;3.15;;;2.85;;
39066;SDS011;24821;51.988;6.020;2022-11-23T03:21:00;3.83;;;3.60;;
39066;SDS011;24821;51.988;6.020;2022-11-23T03:23:29;2.55;;;2.30;;
39066;SDS011;24821;51.988;6.020;2022-11-23T03:25:58;3.13;;;2.92;;
39066;SDS011;24821;51.988;6.020;2022-11-23T03:28:24;5.72;;;3.47;;
39066;SDS011;24821;51.988;6.020;2022-11-23T03:30:50;3.55;;;2.85;;
39066;SDS011;24821;51.988;6.020;2022-11-23T03:33:16;2.63;;;2.42;;
39066;SDS011;24821;51.988;6.020;2022-11-23T03:35:42;10.75;;;2.88;;
39066;SDS011;24821;51.988;6.020;2022-11-23T03:38:07;2.35;;;2.25;;
39066;SDS011;24821;51.988;6.020;2022-11-23T03:40:33;2.33;;;2.22;;
39066;SDS011;24821;51.988;6.020;2022-11-23T03:42:59;4.38;;;3.10;;
39066;SDS011;24821;51.988;6.020;2022-11-23T03:45:24;2.42;;;2.22;;
39066;SDS011;24821;51.988;6.020;2022-11-23T03:47:50;2.85;;;2.67;;
39066;SDS011;24821;51.988;6.020;2022-11-23T03:50:15;3.05;;;2.70;;
39066;SDS011;24821;51.988;6.020;2022-11-23T03:52:41;2.40;;;2.25;;
39066;SDS011;24821;51.988;6.020;2022-11-23T03:55:07;3.15;;;2.83;;
39066;SDS011;24821;51.988;6.020;2022-11-23T03:57:32;2.55;;;2.38;;
39066;SDS011;24821;51.988;6.020;2022-11-23T03:59:58;1.90;;;1.80;;
39066;SDS011;24821;51.988;6.020;2022-11-23T04:02:24;2.88;;;2.67;;
39066;SDS011;24821;51.988;6.020;2022-11-23T04:04:49;3.97;;;2.92;;
39066;SDS011;24821;51.988;6.020;2022-11-23T04:07:15;12.90;;;2.83;;
39066;SDS011;24821;51.988;6.020;2022-11-23T04:09:40;6.68;;;2.67;;
39066;SDS011;24821;51.988;6.020;2022-11-23T04:12:07;2.65;;;2.47;;
39066;SDS011;24821;51.988;6.020;2022-11-23T04:14:33;2.25;;;2.15;;
39066;SDS011;24821;51.988;6.020;2022-11-23T04:16:59;3.35;;;2.88;;
39066;SDS011;24821;51.988;6.020;2022-11-23T04:19:26;2.70;;;2.50;;
39066;SDS011;24821;51.988;6.020;2022-11-23T04:21:52;2.67;;;2.47;;
39066;SDS011;24821;51.988;6.020;2022-11-23T04:24:17;8.38;;;3.00;;
39066;SDS011;24821;51.988;6.020;2022-11-23T04:26:43;2.95;;;2.58;;
39066;SDS011;24821;51.988;6.020;2022-11-23T04:29:08;2.88;;;2.60;;
39066;SDS011;24821;51.988;6.020;2022-11-23T04:31:34;9.02;;;3.30;;
39066;SDS011;24821;51.988;6.020;2022-11-23T04:33:59;4.55;;;2.33;;
39066;SDS011;24821;51.988;6.020;2022-11-23T04:36:25;4.63;;;2.78;;
39066;SDS011;24821;51.988;6.020;2022-11-23T04:38:51;2.97;;;2.88;;
39066;SDS011;24821;51.988;6.020;2022-11-23T04:41:17;2.65;;;2.40;;
39066;SDS011;24821;51.988;6.020;2022-11-23T04:43:42;3.42;;;2.47;;
39066;SDS011;24821;51.988;6.020;2022-11-23T04:46:08;2.78;;;2.58;;
39066;SDS011;24821;51.988;6.020;2022-11-23T04:48:35;3.58;;;2.85;;
39066;SDS011;24821;51.988;6.020;2022-11-23T04:51:01;2.90;;;2.67;;
39066;SDS011;24821;51.988;6.020;2022-11-23T04:53:27;2.80;;;2.60;;
39066;SDS011;24821;51.988;6.020;2022-11-23T04:55:52;2.90;;;2.78;;
39066;SDS011;24821;51.988;6.020;2022-11-23T04:58:18;2.17;;;2.08;;
39066;SDS011;24821;51.988;6.020;2022-11-23T05:00:43;2.67;;;2.53;;
39066;SDS011;24821;51.988;6.020;2022-11-23T05:03:09;3.63;;;2.63;;
39066;SDS011;24821;51.988;6.020;2022-11-23T05:05:38;2.22;;;2.13;;
39066;SDS011;24821;51.988;6.020;2022-11-23T05:08:05;3.20;;;2.95;;
39066;SDS011;24821;51.988;6.020;2022-11-23T05:10:31;4.60;;;2.83;;
39066;SDS011;24821;51.988;6.020;2022-11-23T05:12:56;2.80;;;2.30;;
39066;SDS011;24821;51.988;6.020;2022-11-23T05:15:22;5.45;;;2.53;;
39066;SDS011;24821;51.988;6.020;2022-11-23T05:17:48;3.20;;;2.95;;
39066;SDS011;24821;51.988;6.020;2022-11-23T05:20:13;3.22;;;2.92;;
39066;SDS011;24821;51.988;6.020;2022-11-23T05:22:39;2.40;;;2.30;;
39066;SDS011;24821;51.988;6.020;2022-11-23T05:25:05;2.72;;;2.53;;
39066;SDS011;24821;51.988;6.020;2022-11-23T05:27:31;2.60;;;2.40;;
39066;SDS011;24821;51.988;6.020;2022-11-23T05:29:57;3.45;;;2.63;;
39066;SDS011;24821;51.988;6.020;2022-11-23T05:32:23;3.55;;;2.72;;
39066;SDS011;24821;51.988;6.020;2022-11-23T05:34:48;3.38;;;2.72;;
39066;SDS011;24821;51.988;6.020;2022-11-23T05:37:14;5.15;;;3.00;;
39066;SDS011;24821;51.988;6.020;2022-11-23T05:39:39;2.60;;;2.38;;
39066;SDS011;24821;51.988;6.020;2022-11-23T05:42:05;2.40;;;2.20;;
39066;SDS011;24821;51.988;6.020;2022-11-23T05:44:31;2.67;;;2.50;;
39066;SDS011;24821;51.988;6.020;2022-11-23T05:46:56;3.70;;;2.80;;
39066;SDS011;24821;51.988;6.020;2022-11-23T05:49:22;2.38;;;2.28;;
39066;SDS011;24821;51.988;6.020;2022-11-23T05:51:47;13.85;;;3.17;;
39066;SDS011;24821;51.988;6.020;2022-11-23T05:54:13;2.72;;;2.53;;
39066;SDS011;24821;51.988;6.020;2022-11-23T05:56:38;2.55;;;2.30;;
39066;SDS011;24821;51.988;6.020;2022-11-23T05:59:04;2.20;;;2.08;;
39066;SDS011;24821;51.988;6.020;2022-11-23T06:01:30;2.92;;;2.60;;
39066;SDS011;24821;51.988;6.020;2022-11-23T06:03:57;4.30;;;2.67;;
39066;SDS011;24821;51.988;6.020;2022-11-23T06:06:22;2.70;;;2.50;;
39066;SDS011;24821;51.988;6.020;2022-11-23T06:08:48;2.45;;;2.33;;
39066;SDS011;24821;51.988;6.020;2022-11-23T06:11:13;3.15;;;2.63;;
39066;SDS011;24821;51.988;6.020;2022-11-23T06:13:39;2.53;;;2.33;;
39066;SDS011;24821;51.988;6.020;2022-11-23T06:16:05;3.40;;;3.10;;
39066;SDS011;24821;51.988;6.020;2022-11-23T06:18:30;2.90;;;2.70;;
39066;SDS011;24821;51.988;6.020;2022-11-23T06:20:59;3.92;;;2.45;;
39066;SDS011;24821;51.988;6.020;2022-11-23T06:23:25;3.30;;;2.75;;
39066;SDS011;24821;51.988;6.020;2022-11-23T06:25:51;2.80;;;2.63;;
39066;SDS011;24821;51.988;6.020;2022-11-23T06:28:17;3.67;;;2.53;;
39066;SDS011;24821;51.988;6.020;2022-11-23T06:30:43;12.77;;;2.60;;
39066;SDS011;24821;51.988;6.020;2022-11-23T06:33:08;4.20;;;3.13;;
39066;SDS011;24821;51.988;6.020;2022-11-23T06:35:34;7.80;;;4.25;;
39066;SDS011;24821;51.988;6.020;2022-11-23T06:38:00;2.75;;;2.55;;
39066;SDS011;24821;51.988;6.020;2022-11-23T06:40:25;6.22;;;2.97;;
39066;SDS011;24821;51.988;6.020;2022-11-23T06:42:56;2.38;;;2.03;;
39066;SDS011;24821;51.988;6.020;2022-11-23T06:45:23;5.43;;;3.10;;
39066;SDS011;24821;51.988;6.020;2022-11-23T06:47:48;4.63;;;2.55;;
39066;SDS011;24821;51.988;6.020;2022-11-23T06:50:14;3.95;;;3.22;;
39066;SDS011;24821;51.988;6.020;2022-11-23T06:52:40;2.85;;;2.65;;
39066;SDS011;24821;51.988;6.020;2022-11-23T06:55:05;6.72;;;3.50;;
39066;SDS011;24821;51.988;6.020;2022-11-23T06:57:31;3.42;;;3.05;;
39066;SDS011;24821;51.988;6.020;2022-11-23T06:59:57;3.20;;;2.95;;
39066;SDS011;24821;51.988;6.020;2022-11-23T07:02:22;2.70;;;2.50;;
39066;SDS011;24821;51.988;6.020;2022-11-23T07:04:49;4.93;;;2.45;;
39066;SDS011;24821;51.988;6.020;2022-11-23T07:07:16;2.42;;;2.33;;
39066;SDS011;24821;51.988;6.020;2022-11-23T07:09:41;3.97;;;2.92;;
39066;SDS011;24821;51.988;6.020;2022-11-23T07:12:07;3.25;;;2.05;;
39066;SDS011;24821;51.988;6.020;2022-11-23T07:14:32;2.47;;;2.13;;
39066;SDS011;24821;51.988;6.020;2022-11-23T07:16:58;3.50;;;2.45;;
39066;SDS011;24821;51.988;6.020;2022-11-23T07:19:23;3.08;;;2.35;;
39066;SDS011;24821;51.988;6.020;2022-11-23T07:21:49;5.57;;;2.88;;
39066;SDS011;24821;51.988;6.020;2022-11-23T07:24:15;2.60;;;2.40;;
39066;SDS011;24821;51.988;6.020;2022-11-23T07:26:40;2.95;;;2.75;;
39066;SDS011;24821;51.988;6.020;2022-11-23T07:29:06;2.72;;;2.53;;
39066;SDS011;24821;51.988;6.020;2022-11-23T07:31:31;4.03;;;2.25;;
39066;SDS011;24821;51.988;6.020;2022-11-23T07:33:57;2.05;;;1.95;;
39066;SDS011;24821;51.988;6.020;2022-11-23T07:36:22;3.80;;;2.55;;
39066;SDS011;24821;51.988;6.020;2022-11-23T07:38:48;7.38;;;2.72;;
39066;SDS011;24821;51.988;6.020;2022-11-23T07:41:13;12.88;;;2.20;;
39066;SDS011;24821;51.988;6.020;2022-11-23T07:43:39;4.75;;;1.80;;
39066;SDS011;24821;51.988;6.020;2022-11-23T07:46:04;3.70;;;3.10;;
39066;SDS011;24821;51.988;6.020;2022-11-23T07:48:30;4.15;;;2.45;;
39066;SDS011;24821;51.988;6.020;2022-11-23T07:50:55;2.22;;;2.13;;
39066;SDS011;24821;51.988;6.020;2022-11-23T07:53:21;3.35;;;2.70;;
39066;SDS011;24821;51.988;6.020;2022-11-23T07:55:47;6.53;;;2.78;;
39066;SDS011;24821;51.988;6.020;2022-11-23T07:58:13;8.82;;;3.05;;
39066;SDS011;24821;51.988;6.020;2022-11-23T08:00:39;5.25;;;3.35;;
39066;SDS011;24821;51.988;6.020;2022-11-23T08:03:04;2.83;;;2.22;;
39066;SDS011;24821;51.988;6.020;2022-11-23T08:05:30;2.33;;;2.22;;
39066;SDS011;24821;51.988;6.020;2022-11-23T08:07:57;2.35;;;2.25;;
39066;SDS011;24821;51.988;6.020;2022-11-23T08:10:24;3.38;;;3.05;;
39066;SDS011;24821;51.988;6.020;2022-11-23T08:12:51;6.32;;;2.60;;
39066;SDS011;24821;51.988;6.020;2022-11-23T08:15:17;3.67;;;3.38;;
39066;SDS011;24821;51.988;6.020;2022-11-23T08:17:42;2.60;;;2.42;;
39066;SDS011;24821;51.988;6.020;2022-11-23T08:20:08;3.85;;;2.55;;
39066;SDS011;24821;51.988;6.020;2022-11-23T08:22:34;2.65;;;2.45;;
39066;SDS011;24821;51.988;6.020;2022-11-23T08:24:59;2.40;;;2.28;;
39066;SDS011;24821;51.988;6.020;2022-11-23T08:27:25;2.03;;;1.92;;
39066;SDS011;24821;51.988;6.020;2022-11-23T08:29:51;2.72;;;2.38;;
39066;SDS011;24821;51.988;6.020;2022-11-23T08:32:16;4.15;;;3.05;;
39066;SDS011;24821;51.988;6.020;2022-11-23T08:34:42;3.85;;;3.00;;
39066;SDS011;24821;51.988;6.020;2022-11-23T08:37:08;5.35;;;3.22;;
39066;SDS011;24821;51.988;6.020;2022-11-23T08:39:34;2.08;;;1.98;;
39066;SDS011;24821;51.988;6.020;2022-11-23T08:42:00;8.18;;;3.67;;
39066;SDS011;24821;51.988;6.020;2022-11-23T08:44:25;3.10;;;2.80;;
39066;SDS011;24821;51.988;6.020;2022-11-23T08:46:51;2.58;;;2.30;;
39066;SDS011;24821;51.988;6.020;2022-11-23T08:49:16;2.97;;;2.78;;
39066;SDS011;24821;51.988;6.020;2022-11-23T08:51:42;3.50;;;2.83;;
39066;SDS011;24821;51.988;6.020;2022-11-23T08:54:07;6.15;;;4.07;;
39066;SDS011;24821;51.988;6.020;2022-11-23T08:56:33;4.22;;;3.33;;
39066;SDS011;24821;51.988;6.020;2022-11-23T08:58:58;5.68;;;2.70;;
39066;SDS011;24821;51.988;6.020;2022-11-23T09:01:24;9.13;;;2.85;;
39066;SDS011;24821;51.988;6.020;2022-11-23T09:03:50;4.82;;;2.38;;
39066;SDS011;24821;51.988;6.020;2022-11-23T09:06:15;1.88;;;1.77;;
39066;SDS011;24821;51.988;6.020;2022-11-23T09:08:41;5.35;;;2.30;;
39066;SDS011;24821;51.988;6.020;2022-11-23T09:11:07;5.85;;;2.83;;
39066;SDS011;24821;51.988;6.020;2022-11-23T09:13:34;6.13;;;2.95;;
39066;SDS011;24821;51.988;6.020;2022-11-23T09:16:01;3.58;;;2.08;;
39066;SDS011;24821;51.988;6.020;2022-11-23T09:18:28;3.58;;;2.80;;
39066;SDS011;24821;51.988;6.020;2022-11-23T09:20:54;3.17;;;2.83;;
39066;SDS011;24821;51.988;6.020;2022-11-23T09:23:20;2.50;;;2.22;;
39066;SDS011;24821;51.988;6.020;2022-11-23T09:25:46;3.35;;;3.05;;
39066;SDS011;24821;51.988;6.020;2022-11-23T09:28:14;9.23;;;2.83;;
39066;SDS011;24821;51.988;6.020;2022-11-23T09:30:41;6.30;;;3.17;;
39066;SDS011;24821;51.988;6.020;2022-11-23T09:33:06;9.85;;;2.47;;
39066;SDS011;24821;51.988;6.020;2022-11-23T09:35:33;2.05;;;1.92;;
39066;SDS011;24821;51.988;6.020;2022-11-23T09:37:59;6.68;;;2.20;;
39066;SDS011;24821;51.988;6.020;2022-11-23T09:40:32;16.63;;;2.30;;
39066;SDS011;24821;51.988;6.020;2022-11-23T09:43:43;2.55;;;1.88;;
39066;SDS011;24821;51.988;6.020;2022-11-23T09:45:56;2.63;;;2.42;;
39066;SDS011;24821;51.988;6.020;2022-11-23T09:48:46;5.63;;;2.30;;
39066;SDS011;24821;51.988;6.020;2022-11-23T09:51:16;2.97;;;2.17;;
39066;SDS011;24821;51.988;6.020;2022-11-23T09:56:25;1.48;;;1.48;;
39066;SDS011;24821;51.988;6.020;2022-11-23T09:58:59;3.33;;;1.77;;
39066;SDS011;24821;51.988;6.020;2022-11-23T10:01:27;2.35;;;1.63;;
39066;SDS011;24821;51.988;6.020;2022-11-23T10:03:54;6.43;;;1.65;;
39066;SDS011;24821;51.988;6.020;2022-11-23T10:14:13;1.98;;;1.83;;
39066;SDS011;24821;51.988;6.020;2022-11-23T10:16:58;5.25;;;2.15;;
39066;SDS011;24821;51.988;6.020;2022-11-23T10:22:13;2.00;;;1.75;;
39066;SDS011;24821;51.988;6.020;2022-11-23T10:25:00;2.92;;;1.80;;
39066;SDS011;24821;51.988;6.020;2022-11-23T10:27:34;2.75;;;2.55;;
39066;SDS011;24821;51.988;6.020;2022-11-23T10:30:00;1.73;;;1.58;;
39066;SDS011;24821;51.988;6.020;2022-11-23T10:32:41;1.92;;;1.83;;
39066;SDS011;24821;51.988;6.020;2022-11-23T10:38:11;2.60;;;1.55;;
39066;SDS011;24821;51.988;6.020;2022-11-23T10:40:43;2.17;;;1.98;;
39066;SDS011;24821;51.988;6.020;2022-11-23T10:43:16;2.05;;;1.35;;
39066;SDS011;24821;51.988;6.020;2022-11-23T10:45:49;1.92;;;1.83;;
39066;SDS011;24821;51.988;6.020;2022-11-23T10:48:32;1.15;;;1.10;;
39066;SDS011;24821;51.988;6.020;2022-11-23T10:54:01;1.20;;;1.17;;
39066;SDS011;24821;51.988;6.020;2022-11-23T10:56:28;1.75;;;1.65;;
39066;SDS011;24821;51.988;6.020;2022-11-23T10:58:55;1.75;;;1.63;;
39066;SDS011;24821;51.988;6.020;2022-11-23T11:01:22;2.88;;;2.40;;
39066;SDS011;24821;51.988;6.020;2022-11-23T11:03:50;6.57;;;2.60;;
39066;SDS011;24821;51.988;6.020;2022-11-23T11:06:20;2.20;;;2.10;;
39066;SDS011;24821;51.988;6.020;2022-11-23T11:08:55;2.15;;;2.05;;
39066;SDS011;24821;51.988;6.020;2022-11-23T11:11:25;6.53;;;2.72;;
39066;SDS011;24821;51.988;6.020;2022-11-23T11:13:59;4.38;;;2.85;;
39066;SDS011;24821;51.988;6.020;2022-11-23T11:16:35;1.63;;;1.63;;
39066;SDS011;24821;51.988;6.020;2022-11-23T11:21:54;2.60;;;2.28;;
39066;SDS011;24821;51.988;6.020;2022-11-23T11:24:31;2.13;;;2.03;;
39066;SDS011;24821;51.988;6.020;2022-11-23T11:27:11;2.75;;;2.55;;
39066;SDS011;24821;51.988;6.020;2022-11-23T11:35:20;2.70;;;2.50;;
39066;SDS011;24821;51.988;6.020;2022-11-23T11:38:04;5.97;;;3.55;;
39066;SDS011;24821;51.988;6.020;2022-11-23T11:43:20;3.28;;;2.83;;
39066;SDS011;24821;51.988;6.020;2022-11-23T11:46:26;1.60;;;1.60;;
39066;SDS011;24821;51.988;6.020;2022-11-23T11:49:20;6.03;;;2.22;;
39066;SDS011;24821;51.988;6.020;2022-11-23T11:51:52;1.70;;;1.60;;
39066;SDS011;24821;51.988;6.020;2022-11-23T11:54:23;1.67;;;1.63;;
39066;SDS011;24821;51.988;6.020;2022-11-23T11:59:42;2.78;;;1.90;;
39066;SDS011;24821;51.988;6.020;2022-11-23T12:02:18;2.00;;;1.60;;
39066;SDS011;24821;51.988;6.020;2022-11-23T12:05:12;1.27;;;1.15;;
39066;SDS011;24821;51.988;6.020;2022-11-23T12:07:46;1.50;;;1.25;;
39066;SDS011;24821;51.988;6.020;2022-11-23T12:10:20;3.15;;;1.55;;
39066;SDS011;24821;51.988;6.020;2022-11-23T12:12:51;4.78;;;1.23;;
39066;SDS011;24821;51.988;6.020;2022-11-23T12:15:19;1.85;;;1.75;;
39066;SDS011;24821;51.988;6.020;2022-11-23T12:23:59;2.65;;;1.63;;
39066;SDS011;24821;51.988;6.020;2022-11-23T12:40:37;6.60;;;2.13;;
39066;SDS011;24821;51.988;6.020;2022-11-23T12:48:42;3.33;;;1.52;;
39066;SDS011;24821;51.988;6.020;2022-11-23T12:59:07;1.38;;;1.27;;
39066;SDS011;24821;51.988;6.020;2022-11-23T13:01:39;4.32;;;1.52;;
39066;SDS011;24821;51.988;6.020;2022-11-23T13:09:54;1.23;;;1.20;;
39066;SDS011;24821;51.988;6.020;2022-11-23T13:23:40;1.92;;;1.23;;
39066;SDS011;24821;51.988;6.020;2022-11-23T13:26:39;1.33;;;1.23;;
39066;SDS011;24821;51.988;6.020;2022-11-23T13:28:57;1.10;;;1.10;;
39066;SDS011;24821;51.988;6.020;2022-11-23T13:31:33;1.20;;;1.20;;
39066;SDS011;24821;51.988;6.020;2022-11-23T13:34:00;4.32;;;1.52;;
39066;SDS011;24821;51.988;6.020;2022-11-23T13:36:38;1.60;;;1.50;;
39066;SDS011;24821;51.988;6.020;2022-11-23T13:42:12;5.75;;;1.50;;
39066;SDS011;24821;51.988;6.020;2022-11-23T13:44:38;3.95;;;1.50;;
39066;SDS011;24821;51.988;6.020;2022-11-23T13:49:51;3.65;;;2.75;;
39066;SDS011;24821;51.988;6.020;2022-11-23T13:52:31;1.75;;;1.67;;
39066;SDS011;24821;51.988;6.020;2022-11-23T13:57:37;1.55;;;1.45;;
39066;SDS011;24821;51.988;6.020;2022-11-23T14:06:53;1.58;;;1.40;;
39066;SDS011;24821;51.988;6.020;2022-11-23T14:14:43;2.72;;;2.53;;
39066;SDS011;24821;51.988;6.020;2022-11-23T14:17:37;1.23;;;1.20;;
39066;SDS011;24821;51.988;6.020;2022-11-23T14:20:24;1.58;;;1.48;;
39066;SDS011;24821;51.988;6.020;2022-11-23T14:25:51;4.55;;;1.70;;
39066;SDS011;24821;51.988;6.020;2022-11-23T14:28:33;2.35;;;2.15;;
39066;SDS011;24821;51.988;6.020;2022-11-23T14:31:05;1.70;;;1.60;;
39066;SDS011;24821;51.988;6.020;2022-11-23T14:38:53;1.77;;;1.60;;
39066;SDS011;24821;51.988;6.020;2022-11-23T14:41:31;5.70;;;1.50;;
39066;SDS011;24821;51.988;6.020;2022-11-23T14:44:00;1.13;;;1.00;;
39066;SDS011;24821;51.988;6.020;2022-11-23T14:46:27;2.40;;;1.60;;
39066;SDS011;24821;51.988;6.020;2022-11-23T14:49:09;1.23;;;0.88;;
39066;SDS011;24821;51.988;6.020;2022-11-23T14:51:40;1.63;;;1.02;;
39066;SDS011;24821;51.988;6.020;2022-11-23T14:54:08;2.40;;;2.13;;
39066;SDS011;24821;51.988;6.020;2022-11-23T14:56:40;2.38;;;2.28;;
39066;SDS011;24821;51.988;6.020;2022-11-23T14:59:13;2.38;;;2.28;;
39066;SDS011;24821;51.988;6.020;2022-11-23T15:01:50;1.90;;;1.75;;
39066;SDS011;24821;51.988;6.020;2022-11-23T15:04:27;1.73;;;1.50;;
39066;SDS011;24821;51.988;6.020;2022-11-23T15:07:07;1.80;;;1.38;;
39066;SDS011;24821;51.988;6.020;2022-11-23T15:09:48;1.98;;;1.58;;
39066;SDS011;24821;51.988;6.020;2022-11-23T15:12:24;3.87;;;1.70;;
39066;SDS011;24821;51.988;6.020;2022-11-23T15:14:52;5.82;;;2.20;;
39066;SDS011;24821;51.988;6.020;2022-11-23T15:17:21;1.60;;;1.50;;
39066;SDS011;24821;51.988;6.020;2022-11-23T15:19:59;1.23;;;1.23;;
39066;SDS011;24821;51.988;6.020;2022-11-23T15:22:26;2.58;;;1.77;;
39066;SDS011;24821;51.988;6.020;2022-11-23T15:24:52;1.65;;;1.55;;
39066;SDS011;24821;51.988;6.020;2022-11-23T15:27:21;1.83;;;1.73;;
39066;SDS011;24821;51.988;6.020;2022-11-23T15:29:53;1.40;;;1.33;;
39066;SDS011;24821;51.988;6.020;2022-11-23T15:32:25;3.10;;;1.83;;
39066;SDS011;24821;51.988;6.020;2022-11-23T15:34:52;3.63;;;1.70;;
39066;SDS011;24821;51.988;6.020;2022-11-23T15:37:20;5.57;;;3.25;;
39066;SDS011;24821;51.988;6.020;2022-11-23T15:39:46;6.43;;;5.82;;
39066;SDS011;24821;51.988;6.020;2022-11-23T15:42:14;10.18;;;7.25;;
39066;SDS011;24821;51.988;6.020;2022-11-23T15:44:44;16.48;;;7.65;;
39066;SDS011;24821;51.988;6.020;2022-11-23T15:47:12;4.88;;;3.58;;
39066;SDS011;24821;51.988;6.020;2022-11-23T15:49:42;2.97;;;2.65;;
39066;SDS011;24821;51.988;6.020;2022-11-23T15:52:10;4.10;;;3.72;;
39066;SDS011;24821;51.988;6.020;2022-11-23T15:54:39;2.58;;;2.38;;
39066;SDS011;24821;51.988;6.020;2022-11-23T15:57:11;2.28;;;2.17;;
39066;SDS011;24821;51.988;6.020;2022-11-23T15:59:43;2.38;;;2.28;;
39066;SDS011;24821;51.988;6.020;2022-11-23T16:02:29;2.70;;;2.53;;
39066;SDS011;24821;51.988;6.020;2022-11-23T16:05:10;2.10;;;2.00;;
39066;SDS011;24821;51.988;6.020;2022-11-23T16:12:53;2.05;;;1.95;;
39066;SDS011;24821;51.988;6.020;2022-11-23T16:15:31;1.73;;;1.63;;
39066;SDS011;24821;51.988;6.020;2022-11-23T16:20:45;5.53;;;2.72;;
39066;SDS011;24821;51.988;6.020;2022-11-23T16:23:22;1.80;;;1.80;;
39066;SDS011;24821;51.988;6.020;2022-11-23T16:26:00;2.53;;;2.33;;
39066;SDS011;24821;51.988;6.020;2022-11-23T16:28:31;1.75;;;1.70;;
39066;SDS011;24821;51.988;6.020;2022-11-23T16:30:58;2.28;;;2.10;;
39066;SDS011;24821;51.988;6.020;2022-11-23T16:33:25;2.63;;;2.30;;
39066;SDS011;24821;51.988;6.020;2022-11-23T16:35:51;3.03;;;2.80;;
39066;SDS011;24821;51.988;6.020;2022-11-23T16:38:17;2.05;;;1.95;;
39066;SDS011;24821;51.988;6.020;2022-11-23T16:40:43;4.55;;;2.35;;
39066;SDS011;24821;51.988;6.020;2022-11-23T16:43:09;3.10;;;2.90;;
39066;SDS011;24821;51.988;6.020;2022-11-23T16:45:40;3.15;;;2.92;;
39066;SDS011;24821;51.988;6.020;2022-11-23T16:48:50;2.35;;;2.25;;
39066;SDS011;24821;51.988;6.020;2022-11-23T16:51:00;3.35;;;3.15;;
39066;SDS011;24821;51.988;6.020;2022-11-23T16:53:26;4.57;;;4.13;;
39066;SDS011;24821;51.988;6.020;2022-11-23T16:55:54;5.30;;;4.75;;
39066;SDS011;24821;51.988;6.020;2022-11-23T16:58:24;2.95;;;2.75;;
39066;SDS011;24821;51.988;6.020;2022-11-23T17:00:53;2.35;;;2.25;;
39066;SDS011;24821;51.988;6.020;2022-11-23T17:03:19;3.08;;;2.80;;
39066;SDS011;24821;51.988;6.020;2022-11-23T17:05:45;2.85;;;2.63;;
39066;SDS011;24821;51.988;6.020;2022-11-23T17:08:13;5.40;;;3.25;;
39066;SDS011;24821;51.988;6.020;2022-11-23T17:10:39;2.78;;;2.60;;